createdAt,value
2022-11-10T00:00:55.450Z,995.53
2022-11-10T00:01:55.419Z,995.52
2022-11-10T00:02:55.426Z,995.52
2022-11-10T00:03:55.426Z,995.53
2022-11-10T00:04:55.404Z,995.52
2022-11-10T00:05:55.421Z,995.63
2022-11-10T00:06:55.414Z,995.60
2022-11-10T00:07:55.382Z,995.59
2022-11-10T00:08:55.391Z,995.58
2022-11-10T00:09:56.076Z,995.64
2022-11-10T00:10:55.363Z,995.66
2022-11-10T00:11:55.354Z,995.68
2022-11-10T00:12:55.340Z,995.73
2022-11-10T00:13:55.344Z,995.65
2022-11-10T00:14:55.345Z,995.73
2022-11-10T00:15:55.322Z,995.73
2022-11-10T00:16:55.323Z,995.74
2022-11-10T00:17:55.306Z,995.68
2022-11-10T00:18:55.298Z,995.73
2022-11-10T00:19:56.133Z,995.72
2022-11-10T00:20:55.307Z,995.69
2022-11-10T00:21:55.347Z,995.71
2022-11-10T00:22:55.270Z,995.78
2022-11-10T00:23:55.264Z,995.78
2022-11-10T00:24:55.251Z,995.78
2022-11-10T00:25:56.186Z,995.84
2022-11-10T00:26:55.254Z,995.75
2022-11-10T00:27:55.231Z,995.82
2022-11-10T00:28:55.240Z,995.81
2022-11-10T00:29:56.134Z,995.83
2022-11-10T00:30:55.219Z,995.84
2022-11-10T00:31:55.208Z,995.90
2022-11-10T00:32:55.203Z,995.97
2022-11-10T00:33:55.214Z,995.93
2022-11-10T00:34:55.192Z,995.97
2022-11-10T00:35:55.176Z,995.98
2022-11-10T00:36:55.206Z,996.00
2022-11-10T00:37:55.194Z,995.99
2022-11-10T00:38:55.277Z,996.00
2022-11-10T00:39:55.721Z,996.08
2022-11-10T00:40:55.163Z,996.11
2022-11-10T00:41:55.133Z,996.06
2022-11-10T00:42:55.143Z,996.10
2022-11-10T00:43:55.116Z,996.14
2022-11-10T00:44:55.138Z,996.15
2022-11-10T00:45:55.110Z,996.18
2022-11-10T00:46:55.115Z,996.17
2022-11-10T00:47:55.099Z,996.20
2022-11-10T00:48:55.156Z,996.18
2022-11-10T00:49:55.081Z,996.15
2022-11-10T00:50:55.310Z,996.22
2022-11-10T00:51:55.068Z,996.26
2022-11-10T00:52:55.065Z,996.24
2022-11-10T00:53:55.520Z,996.27
2022-11-10T00:54:55.042Z,996.25
2022-11-10T00:55:55.799Z,996.23
2022-11-10T00:56:55.038Z,996.21
2022-11-10T00:57:55.036Z,996.28
2022-11-10T00:58:55.030Z,996.33
2022-11-10T00:59:55.008Z,996.37
2022-11-10T01:00:55.024Z,996.35
2022-11-10T01:01:55.003Z,996.35
2022-11-10T01:02:54.996Z,996.39
2022-11-10T01:03:55.036Z,996.46
2022-11-10T01:04:55.028Z,996.45
2022-11-10T01:05:54.968Z,996.44
2022-11-10T01:06:55.007Z,996.42
2022-11-10T01:07:54.956Z,996.45
2022-11-10T01:08:55.093Z,996.52
2022-11-10T01:09:55.006Z,996.51
2022-11-10T01:10:54.951Z,996.44
2022-11-10T01:11:54.924Z,996.50
2022-11-10T01:12:54.927Z,996.52
2022-11-10T01:13:54.920Z,996.56
2022-11-10T01:14:54.905Z,996.55
2022-11-10T01:15:54.902Z,996.56
2022-11-10T01:16:54.897Z,996.66
2022-11-10T01:17:54.878Z,996.55
2022-11-10T01:18:55.012Z,996.52
2022-11-10T01:19:54.869Z,996.60
2022-11-10T01:20:54.857Z,996.63
2022-11-10T01:21:54.857Z,996.64
2022-11-10T01:22:54.856Z,996.58
2022-11-10T01:23:54.834Z,996.62
2022-11-10T01:24:54.845Z,996.62
2022-11-10T01:25:54.849Z,996.66
2022-11-10T01:26:54.827Z,996.64
2022-11-10T01:27:54.813Z,996.66
2022-11-10T01:28:54.801Z,996.63
2022-11-10T01:29:54.800Z,996.65
2022-11-10T01:30:54.792Z,996.64
2022-11-10T01:31:54.839Z,996.66
2022-11-10T01:32:54.779Z,996.65
2022-11-10T01:33:54.763Z,996.63
2022-11-10T01:34:54.759Z,996.67
2022-11-10T01:35:54.939Z,996.64
2022-11-10T01:36:54.741Z,996.66
2022-11-10T01:37:54.749Z,996.69
2022-11-10T01:38:54.728Z,996.67
2022-11-10T01:39:54.874Z,996.70
2022-11-10T01:40:54.726Z,996.67
2022-11-10T01:41:54.723Z,996.67
2022-11-10T01:42:54.699Z,996.67
2022-11-10T01:43:54.697Z,996.75
2022-11-10T01:44:54.686Z,996.71
2022-11-10T01:45:54.675Z,996.80
2022-11-10T01:46:54.671Z,996.81
2022-11-10T01:47:54.665Z,996.76
2022-11-10T01:48:54.656Z,996.73
2022-11-10T01:49:54.654Z,996.77
2022-11-10T01:50:54.645Z,996.76
2022-11-10T01:51:54.631Z,996.76
2022-11-10T01:52:54.635Z,996.73
2022-11-10T01:53:56.484Z,996.72
2022-11-10T01:54:54.619Z,996.77
2022-11-10T01:55:55.582Z,996.76
2022-11-10T01:56:54.598Z,996.81
2022-11-10T01:57:54.621Z,996.81
2022-11-10T01:58:54.592Z,996.78
2022-11-10T01:59:54.578Z,996.76
2022-11-10T02:00:55.204Z,996.78
2022-11-10T02:01:55.217Z,996.84
2022-11-10T02:02:54.563Z,996.87
2022-11-10T02:03:54.559Z,996.92
2022-11-10T02:04:54.558Z,996.85
2022-11-10T02:05:54.547Z,996.86
2022-11-10T02:06:54.613Z,996.93
2022-11-10T02:07:54.553Z,996.93
2022-11-10T02:08:54.519Z,996.85
2022-11-10T02:09:54.554Z,996.89
2022-11-10T02:10:54.507Z,996.84
2022-11-10T02:11:54.493Z,996.82
2022-11-10T02:12:54.508Z,996.81
2022-11-10T02:13:54.508Z,996.82
2022-11-10T02:14:54.559Z,996.84
2022-11-10T02:15:54.806Z,996.89
2022-11-10T02:16:54.459Z,996.84
2022-11-10T02:17:54.493Z,996.98
2022-11-10T02:18:54.452Z,996.91
2022-11-10T02:19:54.434Z,996.84
2022-11-10T02:20:54.444Z,996.86
2022-11-10T02:21:54.434Z,996.86
2022-11-10T02:22:54.427Z,996.77
2022-11-10T02:23:54.410Z,996.82
2022-11-10T02:24:54.419Z,996.80
2022-11-10T02:25:54.532Z,996.85
2022-11-10T02:26:54.579Z,996.91
2022-11-10T02:27:54.392Z,996.89
2022-11-10T02:28:54.375Z,996.91
2022-11-10T02:29:54.397Z,996.88
2022-11-10T02:30:54.371Z,996.90
2022-11-10T02:31:54.371Z,996.87
2022-11-10T02:32:54.357Z,996.87
2022-11-10T02:33:54.349Z,996.94
2022-11-10T02:34:54.341Z,996.95
2022-11-10T02:35:54.341Z,996.98
2022-11-10T02:36:55.057Z,997.04
2022-11-10T02:37:54.324Z,997.05
2022-11-10T02:38:54.320Z,997.03
2022-11-10T02:39:54.300Z,997.04
2022-11-10T02:40:54.378Z,997.10
2022-11-10T02:41:54.286Z,997.12
2022-11-10T02:42:54.550Z,997.14
2022-11-10T02:43:54.280Z,997.13
2022-11-10T02:44:54.263Z,997.11
2022-11-10T02:45:54.281Z,997.12
2022-11-10T02:46:54.282Z,997.18
2022-11-10T02:47:54.255Z,997.22
2022-11-10T02:48:54.240Z,997.17
2022-11-10T02:49:54.222Z,997.21
2022-11-10T02:50:54.218Z,997.32
2022-11-10T02:51:54.230Z,997.22
2022-11-10T02:52:54.286Z,997.33
2022-11-10T02:53:54.200Z,997.33
2022-11-10T02:54:54.191Z,997.34
2022-11-10T02:55:54.193Z,997.32
2022-11-10T02:56:54.182Z,997.33
2022-11-10T02:57:54.321Z,997.39
2022-11-10T02:58:54.173Z,997.40
2022-11-10T02:59:54.173Z,997.43
2022-11-10T03:00:54.234Z,997.46
2022-11-10T03:01:54.167Z,997.49
2022-11-10T03:02:54.139Z,997.44
2022-11-10T03:03:54.138Z,997.48
2022-11-10T03:04:54.622Z,997.47
2022-11-10T03:05:54.125Z,997.46
2022-11-10T03:06:54.218Z,997.41
2022-11-10T03:07:54.101Z,997.40
2022-11-10T03:08:55.081Z,997.40
2022-11-10T03:09:54.089Z,997.41
2022-11-10T03:10:54.086Z,997.49
2022-11-10T03:11:55.051Z,997.54
2022-11-10T03:12:54.091Z,997.56
2022-11-10T03:14:02.496Z,997.53
2022-11-10T03:14:55.051Z,997.54
2022-11-10T03:15:54.048Z,997.55
2022-11-10T03:16:54.042Z,997.57
2022-11-10T03:17:54.072Z,997.58
2022-11-10T03:18:54.033Z,997.55
2022-11-10T03:19:54.013Z,997.52
2022-11-10T03:20:54.013Z,997.52
2022-11-10T03:21:54.001Z,997.57
2022-11-10T03:22:54.002Z,997.56
2022-11-10T03:23:54.696Z,997.49
2022-11-10T03:24:53.992Z,997.49
2022-11-10T03:25:53.972Z,997.54
2022-11-10T03:26:53.971Z,997.58
2022-11-10T03:27:53.991Z,997.58
2022-11-10T03:28:54.216Z,997.61
2022-11-10T03:29:54.374Z,997.56
2022-11-10T03:30:53.957Z,997.47
2022-11-10T03:31:53.931Z,997.54
2022-11-10T03:32:53.935Z,997.65
2022-11-10T03:33:53.939Z,997.63
2022-11-10T03:34:53.914Z,997.57
2022-11-10T03:35:53.911Z,997.61
2022-11-10T03:36:53.926Z,997.59
2022-11-10T03:37:53.920Z,997.61
2022-11-10T03:38:53.878Z,997.68
2022-11-10T03:39:53.898Z,997.77
2022-11-10T03:41:54.865Z,997.88
2022-11-10T03:42:53.873Z,997.88
2022-11-10T03:43:53.863Z,997.97
2022-11-10T03:44:53.845Z,997.97
2022-11-10T03:45:54.419Z,998.04
2022-11-10T03:46:53.836Z,998.01
2022-11-10T03:47:53.816Z,998.02
2022-11-10T03:48:53.941Z,997.92
2022-11-10T03:49:53.840Z,997.96
2022-11-10T03:50:53.806Z,997.98
2022-11-10T03:51:53.794Z,998.04
2022-11-10T03:52:53.781Z,998.04
2022-11-10T03:53:53.775Z,998.09
2022-11-10T03:54:53.801Z,998.09
2022-11-10T03:55:53.929Z,998.11
2022-11-10T03:56:53.764Z,998.15
2022-11-10T03:57:53.822Z,998.10
2022-11-10T03:58:53.744Z,998.09
2022-11-10T03:59:53.730Z,998.08
2022-11-10T04:00:53.758Z,998.11
2022-11-10T04:01:53.782Z,998.19
2022-11-10T04:02:53.711Z,998.16
2022-11-10T04:03:53.726Z,998.07
2022-11-10T04:04:53.692Z,998.14
2022-11-10T04:05:54.470Z,998.18
2022-11-10T04:06:53.736Z,998.14
2022-11-10T04:07:53.723Z,998.17
2022-11-10T04:08:53.676Z,998.15
2022-11-10T04:09:53.682Z,998.09
2022-11-10T04:10:53.670Z,998.12
2022-11-10T04:11:53.646Z,998.14
2022-11-10T04:12:53.646Z,998.18
2022-11-10T04:13:53.642Z,998.13
2022-11-10T04:14:53.640Z,998.16
2022-11-10T04:15:53.686Z,998.16
2022-11-10T04:16:53.818Z,998.20
2022-11-10T04:17:53.604Z,998.23
2022-11-10T04:18:53.625Z,998.28
2022-11-10T04:19:53.593Z,998.29
2022-11-10T04:20:53.864Z,998.37
2022-11-10T04:21:53.644Z,998.39
2022-11-10T04:22:54.571Z,998.40
2022-11-10T04:23:53.573Z,998.43
2022-11-10T04:24:53.561Z,998.43
2022-11-10T04:25:54.505Z,998.48
2022-11-10T04:26:53.583Z,998.42
2022-11-10T04:27:53.544Z,998.51
2022-11-10T04:28:54.193Z,998.46
2022-11-10T04:29:53.522Z,998.50
2022-11-10T04:30:53.528Z,998.48
2022-11-10T04:31:53.516Z,998.53
2022-11-10T04:32:53.511Z,998.52
2022-11-10T04:33:53.896Z,998.58
2022-11-10T04:34:53.492Z,998.65
2022-11-10T04:35:53.489Z,998.57
2022-11-10T04:36:53.476Z,998.55
2022-11-10T04:37:53.565Z,998.62
2022-11-10T04:38:53.469Z,998.60
2022-11-10T04:39:53.452Z,998.60
2022-11-10T04:40:53.457Z,998.59
2022-11-10T04:41:57.154Z,998.59
2022-11-10T04:42:56.156Z,998.59
2022-11-10T04:43:53.446Z,998.63
2022-11-10T04:44:53.422Z,998.62
2022-11-10T04:45:53.428Z,998.66
2022-11-10T04:46:53.416Z,998.64
2022-11-10T04:47:53.409Z,998.66
2022-11-10T04:48:53.425Z,998.59
2022-11-10T04:49:53.392Z,998.65
2022-11-10T04:50:53.385Z,998.65
2022-11-10T04:51:53.446Z,998.67
2022-11-10T04:52:53.378Z,998.70
2022-11-10T04:53:53.727Z,998.74
2022-11-10T04:54:53.365Z,998.75
2022-11-10T04:55:53.345Z,998.76
2022-11-10T04:56:53.350Z,998.80
2022-11-10T04:57:53.340Z,998.85
2022-11-10T04:58:53.377Z,998.82
2022-11-10T04:59:53.327Z,998.84
2022-11-10T05:00:53.352Z,998.86
2022-11-10T05:01:53.316Z,998.87
2022-11-10T05:02:53.302Z,998.94
2022-11-10T05:03:53.312Z,998.93
2022-11-10T05:04:53.296Z,998.92
2022-11-10T05:05:53.289Z,999.00
2022-11-10T05:06:53.303Z,998.98
2022-11-10T05:07:53.288Z,999.02
2022-11-10T05:08:53.272Z,998.96
2022-11-10T05:09:53.295Z,999.00
2022-11-10T05:10:53.248Z,998.93
2022-11-10T05:11:53.433Z,998.99
2022-11-10T05:12:53.323Z,999.00
2022-11-10T05:13:53.224Z,999.03
2022-11-10T05:14:53.227Z,998.99
2022-11-10T05:15:53.219Z,999.01
2022-11-10T05:16:53.228Z,999.04
2022-11-10T05:17:53.211Z,999.03
2022-11-10T05:18:53.229Z,999.03
2022-11-10T05:19:53.182Z,998.99
2022-11-10T05:20:53.185Z,999.06
2022-11-10T05:21:53.182Z,999.03
2022-11-10T05:22:53.171Z,999.08
2022-11-10T05:23:53.171Z,999.04
2022-11-10T05:24:53.148Z,999.05
2022-11-10T05:25:53.161Z,999.03
2022-11-10T05:26:53.143Z,999.13
2022-11-10T05:27:53.137Z,999.11
2022-11-10T05:28:53.187Z,999.12
2022-11-10T05:29:53.132Z,999.11
2022-11-10T05:30:53.110Z,999.20
2022-11-10T05:31:53.096Z,999.15
2022-11-10T05:32:53.949Z,999.34
2022-11-10T05:33:53.086Z,999.27
2022-11-10T05:34:53.104Z,999.32
2022-11-10T05:35:53.091Z,999.41
2022-11-10T05:36:53.553Z,999.43
2022-11-10T05:37:53.053Z,999.36
2022-11-10T05:38:53.062Z,999.46
2022-11-10T05:39:53.039Z,999.47
2022-11-10T05:40:53.124Z,999.40
2022-11-10T05:41:53.078Z,999.54
2022-11-10T05:42:53.034Z,999.52
2022-11-10T05:43:53.572Z,999.57
2022-11-10T05:44:53.041Z,999.54
2022-11-10T05:45:53.007Z,999.55
2022-11-10T05:46:53.000Z,999.57
2022-11-10T05:47:53.028Z,999.59
2022-11-10T05:48:53.006Z,999.57
2022-11-10T05:49:52.979Z,999.60
2022-11-10T05:50:53.083Z,999.63
2022-11-10T05:51:52.968Z,999.68
2022-11-10T05:52:52.956Z,999.73
2022-11-10T05:53:53.135Z,999.67
2022-11-10T05:54:52.947Z,999.76
2022-11-10T05:55:52.928Z,999.76
2022-11-10T05:56:52.937Z,999.74
2022-11-10T05:57:52.955Z,999.77
2022-11-10T05:58:52.912Z,999.77
2022-11-10T05:59:52.920Z,999.79
2022-11-10T06:00:52.899Z,999.75
2022-11-10T06:01:52.911Z,999.74
2022-11-10T06:02:53.308Z,999.85
2022-11-10T06:03:52.925Z,999.83
2022-11-10T06:04:52.884Z,999.88
2022-11-10T06:05:52.882Z,999.87
2022-11-10T06:06:53.028Z,999.93
2022-11-10T06:07:52.850Z,999.94
2022-11-10T06:08:52.852Z,999.88
2022-11-10T06:09:52.851Z,999.93
2022-11-10T06:10:55.075Z,999.98
2022-11-10T06:11:52.828Z,999.97
2022-11-10T06:12:52.831Z,999.99
2022-11-10T06:13:52.834Z,999.98
2022-11-10T06:14:52.825Z,1000.05
2022-11-10T06:15:52.795Z,1000.07
2022-11-10T06:16:52.836Z,1000.08
2022-11-10T06:17:52.800Z,1000.14
2022-11-10T06:18:52.780Z,1000.13
2022-11-10T06:19:52.795Z,1000.16
2022-11-10T06:20:52.788Z,1000.17
2022-11-10T06:21:57.618Z,1000.19
2022-11-10T06:22:53.757Z,1000.20
2022-11-10T06:23:53.250Z,1000.19
2022-11-10T06:24:52.747Z,1000.30
2022-11-10T06:25:52.764Z,1000.22
2022-11-10T06:26:52.743Z,1000.23
2022-11-10T06:27:52.732Z,1000.27
2022-11-10T06:28:52.735Z,1000.25
2022-11-10T06:29:52.745Z,1000.30
2022-11-10T06:30:53.149Z,1000.35
2022-11-10T06:31:52.702Z,1000.27
2022-11-10T06:32:52.685Z,1000.29
2022-11-10T06:33:52.703Z,1000.27
2022-11-10T06:34:56.540Z,1000.26
2022-11-10T06:35:53.728Z,1000.26
2022-11-10T06:36:52.679Z,1000.33
2022-11-10T06:37:52.667Z,1000.29
2022-11-10T06:38:52.646Z,1000.33
2022-11-10T06:39:52.647Z,1000.38
2022-11-10T06:40:54.176Z,1000.40
2022-11-10T06:41:52.630Z,1000.48
2022-11-10T06:42:52.636Z,1000.42
2022-11-10T06:43:52.611Z,1000.56
2022-11-10T06:44:52.622Z,1000.57
2022-11-10T06:45:52.627Z,1000.57
2022-11-10T06:46:52.600Z,1000.54
2022-11-10T06:47:53.593Z,1000.61
2022-11-10T06:48:52.589Z,1000.65
2022-11-10T06:49:52.589Z,1000.58
2022-11-10T06:50:52.598Z,1000.64
2022-11-10T06:51:52.591Z,1000.78
2022-11-10T06:52:52.568Z,1000.73
2022-11-10T06:53:52.576Z,1000.76
2022-11-10T06:54:52.568Z,1000.77
2022-11-10T06:55:52.577Z,1000.68
2022-11-10T06:56:53.035Z,1000.78
2022-11-10T06:57:52.520Z,1000.79
2022-11-10T06:58:52.520Z,1000.77
2022-11-10T06:59:52.524Z,1000.79
2022-11-10T07:00:52.541Z,1000.84
2022-11-10T07:01:52.566Z,1000.88
2022-11-10T07:02:53.090Z,1000.88
2022-11-10T07:04:17.825Z,1000.95
2022-11-10T07:04:53.479Z,1000.99
2022-11-10T07:05:52.465Z,1001.08
2022-11-10T07:06:52.580Z,1001.04
2022-11-10T07:07:53.224Z,1001.07
2022-11-10T07:08:52.453Z,1001.12
2022-11-10T07:09:52.444Z,1001.06
2022-11-10T07:10:52.449Z,1001.09
2022-11-10T07:11:52.421Z,1001.14
2022-11-10T07:12:52.412Z,1001.12
2022-11-10T07:13:52.423Z,1001.14
2022-11-10T07:14:52.898Z,1001.19
2022-11-10T07:15:52.442Z,1001.14
2022-11-10T07:16:52.395Z,1001.18
2022-11-10T07:17:52.412Z,1001.18
2022-11-10T07:18:52.387Z,1001.18
2022-11-10T07:19:52.425Z,1001.16
2022-11-10T07:20:52.404Z,1001.12
2022-11-10T07:21:52.368Z,1001.21
2022-11-10T07:22:52.355Z,1001.21
2022-11-10T07:23:52.744Z,1001.19
2022-11-10T07:24:52.336Z,1001.23
2022-11-10T07:25:52.343Z,1001.20
2022-11-10T07:26:52.323Z,1001.17
2022-11-10T07:27:53.176Z,1001.10
2022-11-10T07:28:52.318Z,1001.19
2022-11-10T07:29:52.302Z,1001.12
2022-11-10T07:30:52.302Z,1001.13
2022-11-10T07:31:52.292Z,1001.18
2022-11-10T07:32:52.286Z,1001.17
2022-11-10T07:33:54.669Z,1001.26
2022-11-10T07:34:52.263Z,1001.17
2022-11-10T07:35:52.269Z,1001.19
2022-11-10T07:36:52.264Z,1001.22
2022-11-10T07:37:52.246Z,1001.22
2022-11-10T07:38:52.240Z,1001.23
2022-11-10T07:39:52.245Z,1001.32
2022-11-10T07:40:52.239Z,1001.30
2022-11-10T07:41:52.820Z,1001.25
2022-11-10T07:42:52.217Z,1001.30
2022-11-10T07:43:52.215Z,1001.30
2022-11-10T07:44:52.199Z,1001.33
2022-11-10T07:45:52.205Z,1001.37
2022-11-10T07:46:52.183Z,1001.38
2022-11-10T07:47:52.186Z,1001.31
2022-11-10T07:48:52.192Z,1001.29
2022-11-10T07:49:52.196Z,1001.30
2022-11-10T07:50:52.165Z,1001.33
2022-11-10T07:51:52.159Z,1001.29
2022-11-10T07:52:52.147Z,1001.26
2022-11-10T07:53:52.660Z,1001.35
2022-11-10T07:54:52.135Z,1001.44
2022-11-10T07:55:52.119Z,1001.44
2022-11-10T07:56:52.122Z,1001.41
2022-11-10T07:57:52.135Z,1001.39
2022-11-10T07:58:52.105Z,1001.44
2022-11-10T07:59:55.481Z,1001.47
2022-11-10T08:00:53.103Z,1001.49
2022-11-10T08:01:52.103Z,1001.40
2022-11-10T08:02:52.106Z,1001.53
2022-11-10T08:03:52.067Z,1001.48
2022-11-10T08:04:52.057Z,1001.50
2022-11-10T08:05:52.077Z,1001.60
2022-11-10T08:06:52.885Z,1001.55
2022-11-10T08:07:52.079Z,1001.58
2022-11-10T08:08:52.036Z,1001.57
2022-11-10T08:09:52.026Z,1001.60
2022-11-10T08:10:52.032Z,1001.69
2022-11-10T08:11:52.040Z,1001.64
2022-11-10T08:12:52.014Z,1001.66
2022-11-10T08:13:52.043Z,1001.69
2022-11-10T08:14:52.007Z,1001.70
2022-11-10T08:15:51.987Z,1001.75
2022-11-10T08:16:53.951Z,1001.73
2022-11-10T08:17:52.186Z,1001.80
2022-11-10T08:18:51.958Z,1001.78
2022-11-10T08:19:51.957Z,1001.84
2022-11-10T08:20:51.951Z,1001.79
2022-11-10T08:21:52.312Z,1001.75
2022-11-10T08:22:51.943Z,1001.81
2022-11-10T08:23:51.923Z,1001.76
2022-11-10T08:24:51.940Z,1001.78
2022-11-10T08:25:51.934Z,1001.86
2022-11-10T08:26:51.979Z,1001.85
2022-11-10T08:27:51.893Z,1001.90
2022-11-10T08:28:51.883Z,1001.92
2022-11-10T08:29:51.882Z,1001.93
2022-11-10T08:30:51.872Z,1001.86
2022-11-10T08:31:51.867Z,1001.98
2022-11-10T08:32:51.863Z,1001.97
2022-11-10T08:33:51.850Z,1001.98
2022-11-10T08:34:51.848Z,1002.00
2022-11-10T08:35:51.856Z,1001.99
2022-11-10T08:36:51.843Z,1002.00
2022-11-10T08:37:51.856Z,1002.06
2022-11-10T08:38:51.825Z,1002.08
2022-11-10T08:39:51.829Z,1002.09
2022-11-10T08:40:51.807Z,1002.11
2022-11-10T08:41:51.822Z,1002.09
2022-11-10T08:42:51.793Z,1002.10
2022-11-10T08:43:51.790Z,1002.09
2022-11-10T08:44:51.777Z,1002.13
2022-11-10T08:45:51.757Z,1002.01
2022-11-10T08:46:51.807Z,1002.06
2022-11-10T08:47:52.374Z,1002.03
2022-11-10T08:48:51.744Z,1002.08
2022-11-10T08:49:51.737Z,1002.15
2022-11-10T08:50:51.747Z,1001.96
2022-11-10T08:51:51.730Z,1002.15
2022-11-10T08:52:51.719Z,1002.09
2022-11-10T08:53:51.737Z,1002.13
2022-11-10T08:54:51.768Z,1002.14
2022-11-10T08:55:52.137Z,1002.14
2022-11-10T08:56:52.067Z,1002.23
2022-11-10T08:57:51.700Z,1002.20
2022-11-10T08:58:53.542Z,1002.15
2022-11-10T08:59:51.683Z,1002.24
2022-11-10T09:00:51.681Z,1002.10
2022-11-10T09:01:51.653Z,1002.25
2022-11-10T09:02:51.656Z,1002.19
2022-11-10T09:03:52.258Z,1002.26
2022-11-10T09:04:51.687Z,1002.26
2022-11-10T09:05:57.656Z,1002.29
2022-11-10T09:06:52.641Z,1002.31
2022-11-10T09:07:51.617Z,1002.37
2022-11-10T09:08:51.614Z,1002.41
2022-11-10T09:10:05.959Z,1002.35
2022-11-10T09:10:52.608Z,1002.43
2022-11-10T09:11:51.572Z,1002.46
2022-11-10T09:12:51.588Z,1002.46
2022-11-10T09:13:51.631Z,1002.46
2022-11-10T09:14:51.561Z,1002.46
2022-11-10T09:15:51.547Z,1002.56
2022-11-10T09:16:51.535Z,1002.53
2022-11-10T09:17:51.535Z,1002.57
2022-11-10T09:18:51.544Z,1002.56
2022-11-10T09:19:51.561Z,1002.55
2022-11-10T09:20:51.516Z,1002.62
2022-11-10T09:21:51.511Z,1002.64
2022-11-10T09:22:51.508Z,1002.61
2022-11-10T09:23:51.487Z,1002.65
2022-11-10T09:24:51.540Z,1002.75
2022-11-10T09:25:51.505Z,1002.82
2022-11-10T09:26:51.483Z,1002.77
2022-11-10T09:27:51.497Z,1002.79
2022-11-10T09:28:51.484Z,1002.75
2022-11-10T09:29:51.548Z,1002.77
2022-11-10T09:30:51.440Z,1002.83
2022-11-10T09:31:51.434Z,1002.82
2022-11-10T09:32:51.433Z,1002.81
2022-11-10T09:33:51.416Z,1002.83
2022-11-10T09:34:53.045Z,1002.84
2022-11-10T09:35:51.415Z,1002.89
2022-11-10T09:36:51.395Z,1002.95
2022-11-10T09:37:51.385Z,1002.93
2022-11-10T09:38:51.702Z,1002.94
2022-11-10T09:39:51.400Z,1002.97
2022-11-10T09:40:51.369Z,1002.91
2022-11-10T09:41:51.405Z,1002.93
2022-11-10T09:42:51.345Z,1002.95
2022-11-10T09:43:51.347Z,1003.05
2022-11-10T09:44:51.347Z,1002.99
2022-11-10T09:45:51.352Z,1002.93
2022-11-10T09:46:51.782Z,1002.94
2022-11-10T09:47:57.298Z,1002.93
2022-11-10T09:48:52.312Z,1003.01
2022-11-10T09:49:51.417Z,1003.08
2022-11-10T09:50:51.315Z,1003.11
2022-11-10T09:51:51.398Z,1003.13
2022-11-10T09:52:51.280Z,1003.14
2022-11-10T09:53:51.285Z,1003.23
2022-11-10T09:54:51.321Z,1003.19
2022-11-10T09:55:51.266Z,1003.19
2022-11-10T09:56:51.619Z,1003.16
2022-11-10T09:57:51.308Z,1003.23
2022-11-10T09:58:51.270Z,1003.22
2022-11-10T09:59:52.205Z,1003.22
2022-11-10T10:00:51.362Z,1003.10
2022-11-10T10:01:51.615Z,1003.20
2022-11-10T10:02:51.208Z,1003.24
2022-11-10T10:03:51.202Z,1003.19
2022-11-10T10:04:52.329Z,1003.12
2022-11-10T10:05:51.204Z,1003.06
2022-11-10T10:07:10.300Z,1003.21
2022-11-10T10:07:52.246Z,1003.25
2022-11-10T10:08:51.166Z,1003.20
2022-11-10T10:09:51.172Z,1003.23
2022-11-10T10:10:51.161Z,1003.23
2022-11-10T10:11:51.143Z,1003.22
2022-11-10T10:12:51.153Z,1003.19
2022-11-10T10:13:51.636Z,1003.17
2022-11-10T10:14:51.128Z,1003.19
2022-11-10T10:15:51.117Z,1003.15
2022-11-10T10:16:51.102Z,1003.17
2022-11-10T10:17:51.123Z,1003.10
2022-11-10T10:18:51.099Z,1003.15
2022-11-10T10:19:51.103Z,1003.01
2022-11-10T10:20:51.092Z,1003.14
2022-11-10T10:21:51.083Z,1003.25
2022-11-10T10:22:51.070Z,1003.30
2022-11-10T10:24:52.080Z,1003.32
2022-11-10T10:25:51.038Z,1003.30
2022-11-10T10:26:51.034Z,1003.30
2022-11-10T10:27:51.052Z,1003.28
2022-11-10T10:28:51.034Z,1003.30
2022-11-10T10:29:51.043Z,1003.39
2022-11-10T10:30:51.016Z,1003.44
2022-11-10T10:31:51.001Z,1003.41
2022-11-10T10:32:50.999Z,1003.37
2022-11-10T10:33:51.001Z,1003.42
2022-11-10T10:34:50.982Z,1003.52
2022-11-10T10:35:51.003Z,1003.50
2022-11-10T10:36:50.982Z,1003.44
2022-11-10T10:37:50.967Z,1003.42
2022-11-10T10:38:50.976Z,1003.44
2022-11-10T10:39:50.956Z,1003.43
2022-11-10T10:40:50.952Z,1003.40
2022-11-10T10:41:50.965Z,1003.36
2022-11-10T10:42:50.930Z,1003.26
2022-11-10T10:43:50.916Z,1003.25
2022-11-10T10:44:50.910Z,1003.29
2022-11-10T10:45:51.036Z,1003.26
2022-11-10T10:46:50.898Z,1003.28
2022-11-10T10:47:50.897Z,1003.32
2022-11-10T10:49:02.830Z,1003.28
2022-11-10T10:49:51.871Z,1003.38
2022-11-10T10:50:50.877Z,1003.34
2022-11-10T10:51:50.869Z,1003.33
2022-11-10T10:52:50.857Z,1003.30
2022-11-10T10:53:50.924Z,1003.26
2022-11-10T10:54:50.831Z,1003.36
2022-11-10T10:55:51.927Z,1003.26
2022-11-10T10:56:50.827Z,1003.25
2022-11-10T10:57:50.949Z,1003.29
2022-11-10T10:58:50.810Z,1003.34
2022-11-10T10:59:50.809Z,1003.32
2022-11-10T11:00:50.805Z,1003.35
2022-11-10T11:01:50.879Z,1003.38
2022-11-10T11:02:50.789Z,1003.41
2022-11-10T11:03:50.777Z,1003.45
2022-11-10T11:04:51.412Z,1003.47
2022-11-10T11:05:50.774Z,1003.51
2022-11-10T11:06:50.816Z,1003.53
2022-11-10T11:07:50.757Z,1003.51
2022-11-10T11:08:50.736Z,1003.51
2022-11-10T11:09:51.108Z,1003.44
2022-11-10T11:10:50.740Z,1003.52
2022-11-10T11:11:50.726Z,1003.50
2022-11-10T11:12:51.014Z,1003.53
2022-11-10T11:13:50.698Z,1003.53
2022-11-10T11:14:50.703Z,1003.55
2022-11-10T11:15:50.693Z,1003.59
2022-11-10T11:16:50.726Z,1003.61
2022-11-10T11:17:50.752Z,1003.51
2022-11-10T11:18:50.670Z,1003.49
2022-11-10T11:19:53.437Z,1003.57
2022-11-10T11:20:51.665Z,1003.59
2022-11-10T11:21:50.658Z,1003.59
2022-11-10T11:22:50.636Z,1003.63
2022-11-10T11:23:50.630Z,1003.68
2022-11-10T11:24:54.172Z,1003.77
2022-11-10T11:25:50.635Z,1003.71
2022-11-10T11:26:50.647Z,1003.70
2022-11-10T11:27:50.610Z,1003.67
2022-11-10T11:28:50.594Z,1003.72
2022-11-10T11:29:50.614Z,1003.64
2022-11-10T11:30:50.591Z,1003.67
2022-11-10T11:31:50.565Z,1003.66
2022-11-10T11:32:51.274Z,1003.67
2022-11-10T11:33:50.588Z,1003.60
2022-11-10T11:34:50.553Z,1003.67
2022-11-10T11:35:50.567Z,1003.60
2022-11-10T11:36:50.527Z,1003.58
2022-11-10T11:37:50.519Z,1003.53
2022-11-10T11:38:50.516Z,1003.61
2022-11-10T11:39:50.527Z,1003.61
2022-11-10T11:40:50.740Z,1003.60
2022-11-10T11:41:50.497Z,1003.69
2022-11-10T11:42:50.480Z,1003.61
2022-11-10T11:43:50.479Z,1003.59
2022-11-10T11:44:50.491Z,1003.64
2022-11-10T11:45:50.460Z,1003.63
2022-11-10T11:46:50.465Z,1003.65
2022-11-10T11:47:50.462Z,1003.77
2022-11-10T11:48:50.441Z,1003.69
2022-11-10T11:49:50.553Z,1003.76
2022-11-10T11:50:50.445Z,1003.76
2022-11-10T11:51:50.425Z,1003.68
2022-11-10T11:52:50.420Z,1003.74
2022-11-10T11:53:50.443Z,1003.67
2022-11-10T11:54:50.397Z,1003.63
2022-11-10T11:55:50.389Z,1003.66
2022-11-10T11:56:50.411Z,1003.71
2022-11-10T11:57:50.373Z,1003.82
2022-11-10T11:58:50.377Z,1003.76
2022-11-10T11:59:50.386Z,1003.77
2022-11-10T12:00:50.355Z,1003.76
2022-11-10T12:01:50.350Z,1003.80
2022-11-10T12:02:53.106Z,1003.75
2022-11-10T12:03:50.329Z,1003.85
2022-11-10T12:04:50.326Z,1003.81
2022-11-10T12:05:50.342Z,1003.82
2022-11-10T12:06:50.399Z,1003.79
2022-11-10T12:07:50.315Z,1003.79
2022-11-10T12:08:50.287Z,1003.82
2022-11-10T12:09:50.291Z,1003.72
2022-11-10T12:10:50.284Z,1003.82
2022-11-10T12:11:51.734Z,1003.64
2022-11-10T12:12:50.276Z,1003.77
2022-11-10T12:13:50.256Z,1003.71
2022-11-10T12:14:50.264Z,1003.75
2022-11-10T12:15:50.252Z,1003.80
2022-11-10T12:16:50.234Z,1003.75
2022-11-10T12:17:50.240Z,1003.74
2022-11-10T12:18:50.218Z,1003.69
2022-11-10T12:19:50.214Z,1003.67